الصفحة الرئيسية
METAR-TAF:

METAR-TAF

مطار :

Kecskemét, المجر

دائرة عرض: 46-55N, خط طول: 019-45E, ارتفاع: 113 متر

مراقبة الطقس الحالي

تاريخ ووقت الإصدار 24 دقيقة قبل الساعة 15:15UTC
ريح 6 عقدة من الجنوب الشرقي, الاتجاه يتراوح بين الشرق/الشمال الشرقي و الجنوب
درجة الحرارة 17°درجة مئوية
الرطوبة 25%
ضغط 1032 hPa
الرؤية 10 كم أو أكثر
الغيوم لا تقل 1500 م ولا وجود لمزنة ركامية السحاب الأسود

METAR: LHKE 061515Z 14006KT 060V170 CAVOK 17/M03 Q1032 R12/01//95 NOSIG RMK BLU

زمن: 17:39 (15:39 UTC)

توقعات

تاريخ ووقت الإصدار 1ساعة و 24 دقيقة قبل الساعة 14:15UTC
التوقعات صالحة من06 الساعة 15 UTC إلى 06 الساعة 24 UTC
ريح 10 عقدة من الجنوب الشرقي
الرؤية 10 كم أو أكثر
الغيوم لا تقل 1500 م ولا وجود لمزنة ركامية السحاب الأسود
أصبح
من 06 الساعة 16 UTC إلى 06 الساعة 18 UTC
ريح 5 عقدة من الشرق
أصبح
من 06 الساعة 20 UTC إلى 06 الساعة 23 UTC
ريح 3 عقدةمن اتجاهات متغيرة

TAF: LHKE 061415Z 0615/0624 13010KT CAVOK BECMG 0616/0618 10005KT BECMG 0620/0623 VRB03KT

أرصاد الطقس والتوقعات من أكثر من 4000 مطار (تقارير الطقس للمطار METAR والتنبؤ بالطقس بالمطارTAF).

المحطات المتاحة هي النقط الصفراء والحمراء على الخريطة.

حرك المؤشر فوق النقطة لمعرفة اسم المحطة.

ثم انقر لمعرفة أرصاد وتوقعات الطقس.

لتغيير الخارطة: اضغط على الأزرار الخضراء مع رمز الصليب الأسود للتكبير. على الزر الأخضر مع شرطة للتصغير، أو على الأسهم الخضراء للخرائط المجاورة.


METAR-TAF: